sensor_id;sensor_type;location;lat;lon;timestamp;pressure;altitude;pressure_sealevel;temperature;humidity
29461;BME280;16428;47.836;35.106;2023-06-24T00:00:14;101144.97;;;22.16;99.36
29461;BME280;16428;47.836;35.106;2023-06-24T00:02:42;101147.81;;;22.21;99.07
29461;BME280;16428;47.836;35.106;2023-06-24T00:05:12;101142.38;;;22.09;99.95
29461;BME280;16428;47.836;35.106;2023-06-24T00:07:39;101148.94;;;22.08;99.88
29461;BME280;16428;47.836;35.106;2023-06-24T00:10:14;101152.09;;;22.28;99.54
29461;BME280;16428;47.836;35.106;2023-06-24T00:12:45;101144.19;;;22.32;100.00
29461;BME280;16428;47.836;35.106;2023-06-24T00:15:12;101136.03;;;22.20;100.00
29461;BME280;16428;47.836;35.106;2023-06-24T00:17:39;101142.69;;;22.24;100.00
29461;BME280;16428;47.836;35.106;2023-06-24T00:20:07;101133.47;;;22.42;99.72
29461;BME280;16428;47.836;35.106;2023-06-24T00:22:38;101134.78;;;22.39;98.25
29461;BME280;16428;47.836;35.106;2023-06-24T00:25:11;101133.25;;;22.60;97.00
29461;BME280;16428;47.836;35.106;2023-06-24T00:27:39;101139.56;;;22.61;98.17
29461;BME280;16428;47.836;35.106;2023-06-24T00:30:06;101123.03;;;22.56;97.55
29461;BME280;16428;47.836;35.106;2023-06-24T00:32:34;101126.91;;;22.43;99.61
29461;BME280;16428;47.836;35.106;2023-06-24T00:35:01;101129.59;;;22.55;98.50
29461;BME280;16428;47.836;35.106;2023-06-24T00:37:28;101124.66;;;22.40;99.31
29461;BME280;16428;47.836;35.106;2023-06-24T00:39:55;101139.13;;;22.52;99.04
29461;BME280;16428;47.836;35.106;2023-06-24T00:42:23;101142.97;;;22.68;98.43
29461;BME280;16428;47.836;35.106;2023-06-24T00:44:50;101143.38;;;22.60;99.63
29461;BME280;16428;47.836;35.106;2023-06-24T00:47:17;101125.34;;;22.64;99.52
29461;BME280;16428;47.836;35.106;2023-06-24T00:49:45;101136.94;;;22.83;97.68
29461;BME280;16428;47.836;35.106;2023-06-24T00:52:12;101133.03;;;22.78;99.97
29461;BME280;16428;47.836;35.106;2023-06-24T00:54:43;101134.75;;;22.68;100.00
29461;BME280;16428;47.836;35.106;2023-06-24T00:57:12;101140.72;;;22.65;100.00
29461;BME280;16428;47.836;35.106;2023-06-24T00:59:40;101150.31;;;22.79;100.00
29461;BME280;16428;47.836;35.106;2023-06-24T01:02:10;101136.03;;;23.10;95.72
29461;BME280;16428;47.836;35.106;2023-06-24T01:04:38;101132.41;;;23.05;98.31
29461;BME280;16428;47.836;35.106;2023-06-24T01:07:05;101121.09;;;23.18;96.42
29461;BME280;16428;47.836;35.106;2023-06-24T01:09:33;101125.25;;;23.04;98.40
29461;BME280;16428;47.836;35.106;2023-06-24T01:12:01;101110.97;;;23.02;99.08
29461;BME280;16428;47.836;35.106;2023-06-24T01:14:28;101113.63;;;22.80;100.00
29461;BME280;16428;47.836;35.106;2023-06-24T01:16:58;101108.25;;;22.85;100.00
29461;BME280;16428;47.836;35.106;2023-06-24T01:33:42;101108.63;;;22.60;100.00
29461;BME280;16428;47.836;35.106;2023-06-24T01:36:16;101108.75;;;22.54;100.00
29461;BME280;16428;47.836;35.106;2023-06-24T01:38:52;101113.22;;;22.88;100.00
29461;BME280;16428;47.836;35.106;2023-06-24T01:41:22;101121.66;;;22.70;100.00
29461;BME280;16428;47.836;35.106;2023-06-24T01:43:53;101126.84;;;22.55;100.00
29461;BME280;16428;47.836;35.106;2023-06-24T01:46:22;101117.38;;;22.45;100.00
29461;BME280;16428;47.836;35.106;2023-06-24T01:48:57;101111.75;;;22.69;100.00
29461;BME280;16428;47.836;35.106;2023-06-24T01:51:26;101116.91;;;22.65;100.00
29461;BME280;16428;47.836;35.106;2023-06-24T01:54:05;101110.38;;;22.83;100.00
29461;BME280;16428;47.836;35.106;2023-06-24T01:56:33;101111.66;;;22.64;100.00
29461;BME280;16428;47.836;35.106;2023-06-24T01:59:04;101114.78;;;22.84;100.00
29461;BME280;16428;47.836;35.106;2023-06-24T02:01:32;101109.84;;;22.69;100.00
29461;BME280;16428;47.836;35.106;2023-06-24T02:04:03;101120.81;;;22.69;100.00
29461;BME280;16428;47.836;35.106;2023-06-24T02:06:32;101122.72;;;22.69;100.00
29461;BME280;16428;47.836;35.106;2023-06-24T02:09:01;101111.59;;;22.59;100.00
29461;BME280;16428;47.836;35.106;2023-06-24T02:11:30;101099.25;;;22.73;100.00
29461;BME280;16428;47.836;35.106;2023-06-24T02:14:01;101103.66;;;22.74;100.00
29461;BME280;16428;47.836;35.106;2023-06-24T02:16:29;101101.50;;;22.76;100.00
29461;BME280;16428;47.836;35.106;2023-06-24T02:18:58;101103.66;;;22.74;100.00
29461;BME280;16428;47.836;35.106;2023-06-24T02:21:26;101112.22;;;22.49;100.00
29461;BME280;16428;47.836;35.106;2023-06-24T02:23:53;101105.31;;;22.46;100.00
29461;BME280;16428;47.836;35.106;2023-06-24T02:26:22;101100.75;;;22.35;100.00
29461;BME280;16428;47.836;35.106;2023-06-24T02:28:50;101109.56;;;22.37;100.00
29461;BME280;16428;47.836;35.106;2023-06-24T02:31:18;101101.53;;;22.19;100.00
29461;BME280;16428;47.836;35.106;2023-06-24T02:33:45;101098.50;;;22.32;100.00
29461;BME280;16428;47.836;35.106;2023-06-24T02:36:12;101098.22;;;22.17;100.00
29461;BME280;16428;47.836;35.106;2023-06-24T02:38:39;101098.41;;;22.27;100.00
29461;BME280;16428;47.836;35.106;2023-06-24T02:41:07;101089.28;;;22.22;100.00
29461;BME280;16428;47.836;35.106;2023-06-24T02:43:34;101083.50;;;22.06;100.00
29461;BME280;16428;47.836;35.106;2023-06-24T02:46:03;101085.91;;;22.03;100.00
29461;BME280;16428;47.836;35.106;2023-06-24T02:48:34;101093.09;;;22.21;100.00
29461;BME280;16428;47.836;35.106;2023-06-24T02:51:04;101092.78;;;22.34;100.00
29461;BME280;16428;47.836;35.106;2023-06-24T02:53:33;101081.69;;;22.40;100.00
29461;BME280;16428;47.836;35.106;2023-06-24T02:56:01;101086.16;;;22.46;100.00
29461;BME280;16428;47.836;35.106;2023-06-24T02:58:31;101087.28;;;22.45;100.00
29461;BME280;16428;47.836;35.106;2023-06-24T03:01:00;101076.16;;;22.52;100.00
29461;BME280;16428;47.836;35.106;2023-06-24T03:03:31;101085.19;;;22.53;100.00
29461;BME280;16428;47.836;35.106;2023-06-24T03:05:59;101087.03;;;22.64;100.00
29461;BME280;16428;47.836;35.106;2023-06-24T03:08:29;101083.97;;;22.60;100.00
29461;BME280;16428;47.836;35.106;2023-06-24T03:10:57;101078.22;;;22.62;100.00
29461;BME280;16428;47.836;35.106;2023-06-24T03:13:25;101077.66;;;22.60;100.00
29461;BME280;16428;47.836;35.106;2023-06-24T03:15:52;101083.25;;;22.82;100.00
29461;BME280;16428;47.836;35.106;2023-06-24T03:18:20;101083.31;;;22.70;100.00
29461;BME280;16428;47.836;35.106;2023-06-24T03:20:47;101101.19;;;22.89;100.00
29461;BME280;16428;47.836;35.106;2023-06-24T03:23:14;101102.66;;;22.80;100.00
29461;BME280;16428;47.836;35.106;2023-06-24T03:25:41;101099.03;;;22.63;100.00
29461;BME280;16428;47.836;35.106;2023-06-24T03:28:08;101093.72;;;22.85;100.00
29461;BME280;16428;47.836;35.106;2023-06-24T03:30:36;101094.69;;;22.95;100.00
29461;BME280;16428;47.836;35.106;2023-06-24T03:33:03;101094.69;;;23.12;100.00
29461;BME280;16428;47.836;35.106;2023-06-24T03:35:30;101101.19;;;23.06;100.00
29461;BME280;16428;47.836;35.106;2023-06-24T03:38:00;101107.50;;;23.06;100.00
29461;BME280;16428;47.836;35.106;2023-06-24T03:40:27;101097.94;;;23.09;100.00
29461;BME280;16428;47.836;35.106;2023-06-24T03:42:54;101102.03;;;23.06;100.00
29461;BME280;16428;47.836;35.106;2023-06-24T03:45:21;101096.19;;;23.20;100.00
29461;BME280;16428;47.836;35.106;2023-06-24T03:47:48;101097.03;;;23.20;100.00
29461;BME280;16428;47.836;35.106;2023-06-24T03:50:15;101103.28;;;23.54;97.07
29461;BME280;16428;47.836;35.106;2023-06-24T03:52:43;101099.16;;;23.73;93.81
29461;BME280;16428;47.836;35.106;2023-06-24T03:55:11;101104.22;;;23.81;94.73
29461;BME280;16428;47.836;35.106;2023-06-24T03:57:38;101095.88;;;24.20;85.38
29461;BME280;16428;47.836;35.106;2023-06-24T04:00:06;101093.63;;;24.17;82.20
29461;BME280;16428;47.836;35.106;2023-06-24T04:02:42;101103.78;;;24.38;80.61
29461;BME280;16428;47.836;35.106;2023-06-24T04:05:10;101104.72;;;24.49;79.79
29461;BME280;16428;47.836;35.106;2023-06-24T04:07:37;101101.25;;;24.59;80.62
29461;BME280;16428;47.836;35.106;2023-06-24T04:10:06;101107.91;;;24.68;80.20
29461;BME280;16428;47.836;35.106;2023-06-24T04:12:37;101101.91;;;24.71;78.91
29461;BME280;16428;47.836;35.106;2023-06-24T04:15:05;101100.31;;;24.75;77.98
29461;BME280;16428;47.836;35.106;2023-06-24T04:17:32;101101.19;;;24.85;78.46
29461;BME280;16428;47.836;35.106;2023-06-24T04:19:59;101099.59;;;24.89;77.73
29461;BME280;16428;47.836;35.106;2023-06-24T04:22:27;101105.94;;;24.90;78.20
29461;BME280;16428;47.836;35.106;2023-06-24T04:24:54;101094.47;;;24.98;77.97
29461;BME280;16428;47.836;35.106;2023-06-24T04:27:21;101096.16;;;25.04;76.96
29461;BME280;16428;47.836;35.106;2023-06-24T04:29:48;101097.72;;;24.95;77.98
29461;BME280;16428;47.836;35.106;2023-06-24T04:32:15;101105.50;;;25.03;78.10
29461;BME280;16428;47.836;35.106;2023-06-24T04:34:43;101105.53;;;25.08;78.81
29461;BME280;16428;47.836;35.106;2023-06-24T04:37:10;101092.59;;;25.09;78.82
29461;BME280;16428;47.836;35.106;2023-06-24T04:39:39;101112.69;;;25.09;78.60
29461;BME280;16428;47.836;35.106;2023-06-24T04:42:07;101101.94;;;25.08;79.59
29461;BME280;16428;47.836;35.106;2023-06-24T04:44:35;101106.72;;;25.17;78.77
29461;BME280;16428;47.836;35.106;2023-06-24T04:47:02;101107.03;;;25.26;77.80
29461;BME280;16428;47.836;35.106;2023-06-24T04:49:30;101103.44;;;25.20;78.81
29461;BME280;16428;47.836;35.106;2023-06-24T04:52:00;101107.28;;;25.24;79.05
29461;BME280;16428;47.836;35.106;2023-06-24T04:54:27;101107.91;;;25.32;77.82
29461;BME280;16428;47.836;35.106;2023-06-24T04:56:55;101118.94;;;25.42;78.20
29461;BME280;16428;47.836;35.106;2023-06-24T04:59:23;101118.94;;;25.42;76.87
29461;BME280;16428;47.836;35.106;2023-06-24T05:01:50;101109.59;;;25.43;77.93
29461;BME280;16428;47.836;35.106;2023-06-24T05:04:17;101110.25;;;25.60;79.73
29461;BME280;16428;47.836;35.106;2023-06-24T05:06:45;101106.78;;;25.75;78.83
29461;BME280;16428;47.836;35.106;2023-06-24T05:09:12;101113.66;;;25.72;78.39
29461;BME280;16428;47.836;35.106;2023-06-24T05:11:41;101111.16;;;25.66;77.21
29461;BME280;16428;47.836;35.106;2023-06-24T05:14:09;101111.44;;;25.69;78.09
29461;BME280;16428;47.836;35.106;2023-06-24T05:16:37;101103.81;;;25.86;76.49
29461;BME280;16428;47.836;35.106;2023-06-24T05:19:03;101100.50;;;25.84;76.02
29461;BME280;16428;47.836;35.106;2023-06-24T05:21:31;101089.47;;;25.84;76.56
29461;BME280;16428;47.836;35.106;2023-06-24T05:23:58;101094.47;;;25.98;76.25
29461;BME280;16428;47.836;35.106;2023-06-24T05:26:25;101094.53;;;26.08;76.14
29461;BME280;16428;47.836;35.106;2023-06-24T05:28:52;101096.19;;;26.14;76.31
29461;BME280;16428;47.836;35.106;2023-06-24T05:31:20;101103.91;;;26.17;75.22
29461;BME280;16428;47.836;35.106;2023-06-24T05:33:47;101095.13;;;26.25;76.71
29461;BME280;16428;47.836;35.106;2023-06-24T05:36:14;101091.31;;;26.36;74.75
29461;BME280;16428;47.836;35.106;2023-06-24T05:38:41;101087.44;;;26.32;74.66
29461;BME280;16428;47.836;35.106;2023-06-24T05:41:08;101083.31;;;26.30;74.87
29461;BME280;16428;47.836;35.106;2023-06-24T05:43:35;101085.53;;;26.33;75.43
29461;BME280;16428;47.836;35.106;2023-06-24T05:46:03;101080.56;;;26.45;74.63
29461;BME280;16428;47.836;35.106;2023-06-24T05:48:31;101088.34;;;26.58;74.80
29461;BME280;16428;47.836;35.106;2023-06-24T05:50:58;101083.91;;;26.52;73.52
29461;BME280;16428;47.836;35.106;2023-06-24T05:53:26;101077.81;;;26.45;74.69
29461;BME280;16428;47.836;35.106;2023-06-24T05:55:53;101085.84;;;26.56;75.20
29461;BME280;16428;47.836;35.106;2023-06-24T05:58:20;101091.06;;;26.63;73.40
29461;BME280;16428;47.836;35.106;2023-06-24T06:00:47;101090.25;;;26.62;73.16
29461;BME280;16428;47.836;35.106;2023-06-24T06:03:14;101085.84;;;26.67;72.70
29461;BME280;16428;47.836;35.106;2023-06-24T06:05:41;101089.13;;;26.58;74.70
29461;BME280;16428;47.836;35.106;2023-06-24T06:08:09;101084.47;;;26.79;72.99
29461;BME280;16428;47.836;35.106;2023-06-24T06:10:36;101083.63;;;26.89;73.02
29461;BME280;16428;47.836;35.106;2023-06-24T06:13:03;101083.38;;;27.06;72.41
29461;BME280;16428;47.836;35.106;2023-06-24T06:15:31;101079.78;;;27.10;73.47
29461;BME280;16428;47.836;35.106;2023-06-24T06:17:59;101082.47;;;27.36;70.75
29461;BME280;16428;47.836;35.106;2023-06-24T06:20:26;101083.31;;;27.36;71.34
29461;BME280;16428;47.836;35.106;2023-06-24T06:22:53;101077.78;;;27.46;69.71
29461;BME280;16428;47.836;35.106;2023-06-24T06:25:20;101085.81;;;27.27;69.31
29461;BME280;16428;47.836;35.106;2023-06-24T06:27:47;101079.78;;;27.15;70.44
29461;BME280;16428;47.836;35.106;2023-06-24T06:30:14;101072.34;;;27.16;71.31
29461;BME280;16428;47.836;35.106;2023-06-24T06:32:43;101083.91;;;27.23;69.77
29461;BME280;16428;47.836;35.106;2023-06-24T06:35:10;101077.81;;;27.21;71.13
29461;BME280;16428;47.836;35.106;2023-06-24T06:37:37;101075.06;;;27.21;71.90
29461;BME280;16428;47.836;35.106;2023-06-24T06:40:05;101074.81;;;27.17;71.66
29461;BME280;16428;47.836;35.106;2023-06-24T06:42:32;101074.78;;;27.33;71.76
29461;BME280;16428;47.836;35.106;2023-06-24T06:44:59;101074.16;;;27.51;70.88
29461;BME280;16428;47.836;35.106;2023-06-24T06:47:26;101065.59;;;27.52;71.18
29461;BME280;16428;47.836;35.106;2023-06-24T06:49:54;101068.59;;;27.71;70.97
29461;BME280;16428;47.836;35.106;2023-06-24T06:52:21;101069.69;;;27.80;70.38
29461;BME280;16428;47.836;35.106;2023-06-24T06:54:48;101062.72;;;27.88;70.38
29461;BME280;16428;47.836;35.106;2023-06-24T06:57:15;101059.06;;;28.02;70.83
29461;BME280;16428;47.836;35.106;2023-06-24T06:59:42;101064.56;;;28.08;69.21
29461;BME280;16428;47.836;35.106;2023-06-24T07:02:09;101063.41;;;28.19;70.40
29461;BME280;16428;47.836;35.106;2023-06-24T07:04:36;101063.28;;;28.39;68.58
29461;BME280;16428;47.836;35.106;2023-06-24T07:07:04;101058.13;;;28.61;68.94
29461;BME280;16428;47.836;35.106;2023-06-24T07:09:31;101051.47;;;28.67;69.14
29461;BME280;16428;47.836;35.106;2023-06-24T07:11:58;101042.53;;;28.81;66.53
29461;BME280;16428;47.836;35.106;2023-06-24T07:14:25;101038.13;;;28.75;67.56
29461;BME280;16428;47.836;35.106;2023-06-24T07:16:52;101040.22;;;28.88;67.26
29461;BME280;16428;47.836;35.106;2023-06-24T07:19:19;101041.41;;;28.77;66.28
29461;BME280;16428;47.836;35.106;2023-06-24T07:21:46;101040.88;;;28.75;66.06
29461;BME280;16428;47.836;35.106;2023-06-24T07:24:13;101036.94;;;28.86;64.46
29461;BME280;16428;47.836;35.106;2023-06-24T07:26:41;101024.81;;;28.77;64.12
29461;BME280;16428;47.836;35.106;2023-06-24T07:29:08;101036.31;;;28.94;63.49
29461;BME280;16428;47.836;35.106;2023-06-24T07:31:37;101034.09;;;28.96;63.66
29461;BME280;16428;47.836;35.106;2023-06-24T07:34:04;101037.75;;;29.15;65.32
29461;BME280;16428;47.836;35.106;2023-06-24T07:36:32;101031.44;;;29.33;66.18
29461;BME280;16428;47.836;35.106;2023-06-24T07:38:59;101036.44;;;29.60;63.19
29461;BME280;16428;47.836;35.106;2023-06-24T07:41:27;101030.31;;;29.82;63.39
29461;BME280;16428;47.836;35.106;2023-06-24T07:43:55;101036.38;;;29.84;64.34
29461;BME280;16428;47.836;35.106;2023-06-24T07:46:22;101035.19;;;29.90;60.70
29461;BME280;16428;47.836;35.106;2023-06-24T07:48:49;101034.06;;;29.91;62.12
29461;BME280;16428;47.836;35.106;2023-06-24T07:51:16;101026.41;;;29.83;60.62
29461;BME280;16428;47.836;35.106;2023-06-24T07:53:43;101023.34;;;30.08;59.27
29461;BME280;16428;47.836;35.106;2023-06-24T07:56:10;101024.34;;;30.13;60.28
29461;BME280;16428;47.836;35.106;2023-06-24T07:58:38;101029.38;;;30.11;60.69
29461;BME280;16428;47.836;35.106;2023-06-24T08:01:05;101029.91;;;30.31;59.19
29461;BME280;16428;47.836;35.106;2023-06-24T08:03:33;101028.53;;;30.48;59.83
29461;BME280;16428;47.836;35.106;2023-06-24T08:06:01;101028.06;;;30.40;56.66
29461;BME280;16428;47.836;35.106;2023-06-24T08:08:29;101030.63;;;30.56;57.80
29461;BME280;16428;47.836;35.106;2023-06-24T08:10:56;101025.41;;;30.54;58.44
29461;BME280;16428;47.836;35.106;2023-06-24T08:13:24;101031.91;;;30.63;58.10
29461;BME280;16428;47.836;35.106;2023-06-24T08:15:51;101031.06;;;30.44;57.74
29461;BME280;16428;47.836;35.106;2023-06-24T08:18:18;101038.25;;;30.45;55.90
29461;BME280;16428;47.836;35.106;2023-06-24T08:20:46;101036.41;;;30.59;55.88
29461;BME280;16428;47.836;35.106;2023-06-24T08:23:13;101043.84;;;30.77;55.62
29461;BME280;16428;47.836;35.106;2023-06-24T08:25:41;101032.28;;;31.03;54.01
29461;BME280;16428;47.836;35.106;2023-06-24T08:28:08;101039.22;;;31.19;55.11
29461;BME280;16428;47.836;35.106;2023-06-24T08:30:35;101040.97;;;31.15;53.66
29461;BME280;16428;47.836;35.106;2023-06-24T08:33:02;101033.59;;;31.24;52.25
29461;BME280;16428;47.836;35.106;2023-06-24T08:35:29;101040.78;;;31.53;52.57
29461;BME280;16428;47.836;35.106;2023-06-24T08:37:57;101032.06;;;31.45;55.00
29461;BME280;16428;47.836;35.106;2023-06-24T08:40:24;101036.78;;;31.59;52.97
29461;BME280;16428;47.836;35.106;2023-06-24T08:42:51;101032.97;;;31.55;53.11
29461;BME280;16428;47.836;35.106;2023-06-24T08:45:18;101041.38;;;31.36;53.44
29461;BME280;16428;47.836;35.106;2023-06-24T08:47:47;101039.03;;;31.43;53.00
29461;BME280;16428;47.836;35.106;2023-06-24T08:50:17;101029.06;;;31.56;53.02
29461;BME280;16428;47.836;35.106;2023-06-24T08:52:51;101021.75;;;31.73;53.46
29461;BME280;16428;47.836;35.106;2023-06-24T08:55:23;101022.44;;;31.79;53.74
29461;BME280;16428;47.836;35.106;2023-06-24T08:57:50;101023.91;;;32.12;53.08
29461;BME280;16428;47.836;35.106;2023-06-24T09:00:18;101015.25;;;31.92;52.26
29461;BME280;16428;47.836;35.106;2023-06-24T09:02:45;101007.13;;;32.17;52.17
29461;BME280;16428;47.836;35.106;2023-06-24T09:05:13;101018.84;;;32.28;50.20
29461;BME280;16428;47.836;35.106;2023-06-24T09:07:40;101017.41;;;32.31;49.34
29461;BME280;16428;47.836;35.106;2023-06-24T09:10:08;101023.16;;;32.34;50.19
29461;BME280;16428;47.836;35.106;2023-06-24T09:12:35;101012.91;;;32.43;49.96
29461;BME280;16428;47.836;35.106;2023-06-24T09:15:03;101011.44;;;32.24;50.15
29461;BME280;16428;47.836;35.106;2023-06-24T09:17:30;101015.94;;;32.33;48.78
29461;BME280;16428;47.836;35.106;2023-06-24T09:20:04;101004.88;;;32.42;48.23
29461;BME280;16428;47.836;35.106;2023-06-24T09:22:33;101011.50;;;32.55;47.28
29461;BME280;16428;47.836;35.106;2023-06-24T09:25:01;101013.50;;;32.54;47.25
29461;BME280;16428;47.836;35.106;2023-06-24T09:27:31;101013.78;;;32.75;46.98
29461;BME280;16428;47.836;35.106;2023-06-24T09:29:58;101004.00;;;32.77;47.34
29461;BME280;16428;47.836;35.106;2023-06-24T09:32:34;101005.94;;;33.08;46.81
29461;BME280;16428;47.836;35.106;2023-06-24T09:35:03;101000.59;;;33.20;48.31
29461;BME280;16428;47.836;35.106;2023-06-24T09:37:32;100991.00;;;33.26;48.02
29461;BME280;16428;47.836;35.106;2023-06-24T09:40:00;101004.44;;;33.33;47.36
29461;BME280;16428;47.836;35.106;2023-06-24T09:42:32;100985.84;;;33.59;47.57
29461;BME280;16428;47.836;35.106;2023-06-24T09:45:04;100992.69;;;33.62;47.57
29461;BME280;16428;47.836;35.106;2023-06-24T09:47:32;100993.47;;;33.36;47.27
29461;BME280;16428;47.836;35.106;2023-06-24T09:49:59;101002.56;;;33.19;48.79
29461;BME280;16428;47.836;35.106;2023-06-24T09:52:31;100991.59;;;33.14;49.00
29461;BME280;16428;47.836;35.106;2023-06-24T09:55:01;100999.56;;;33.07;49.86
29461;BME280;16428;47.836;35.106;2023-06-24T09:57:35;100985.25;;;32.92;49.04
29461;BME280;16428;47.836;35.106;2023-06-24T10:00:02;100999.88;;;32.75;50.37
29461;BME280;16428;47.836;35.106;2023-06-24T10:02:31;100985.13;;;32.97;49.59
29461;BME280;16428;47.836;35.106;2023-06-24T10:04:59;100984.28;;;33.27;50.03
29461;BME280;16428;47.836;35.106;2023-06-24T10:07:28;100985.81;;;33.50;49.86
29461;BME280;16428;47.836;35.106;2023-06-24T10:09:56;100978.94;;;33.65;48.56
29461;BME280;16428;47.836;35.106;2023-06-24T10:12:23;100975.84;;;33.67;48.65
29461;BME280;16428;47.836;35.106;2023-06-24T10:14:53;100975.84;;;33.67;51.04
29461;BME280;16428;47.836;35.106;2023-06-24T10:17:20;100981.59;;;33.70;48.33
29461;BME280;16428;47.836;35.106;2023-06-24T10:19:48;100969.56;;;33.35;49.31
29461;BME280;16428;47.836;35.106;2023-06-24T10:22:15;100960.75;;;33.68;48.79
29461;BME280;16428;47.836;35.106;2023-06-24T10:24:46;100957.47;;;33.66;46.16
29461;BME280;16428;47.836;35.106;2023-06-24T10:27:21;100949.63;;;33.68;47.90
29461;BME280;16428;47.836;35.106;2023-06-24T10:29:52;100940.47;;;33.76;46.54
29461;BME280;16428;47.836;35.106;2023-06-24T10:32:22;100949.31;;;33.78;48.10
29461;BME280;16428;47.836;35.106;2023-06-24T10:34:56;100954.25;;;34.07;47.76
29461;BME280;16428;47.836;35.106;2023-06-24T10:37:26;100942.59;;;34.13;47.58
29461;BME280;16428;47.836;35.106;2023-06-24T10:39:57;100954.25;;;33.81;47.03
29461;BME280;16428;47.836;35.106;2023-06-24T10:42:43;100946.53;;;33.95;46.58
29461;BME280;16428;47.836;35.106;2023-06-24T10:47:43;100937.53;;;33.98;45.97
29461;BME280;16428;47.836;35.106;2023-06-24T10:50:12;100926.66;;;34.22;46.22
29461;BME280;16428;47.836;35.106;2023-06-24T10:52:45;100937.94;;;34.61;44.51
29461;BME280;16428;47.836;35.106;2023-06-24T10:55:14;100929.47;;;34.86;42.97
29461;BME280;16428;47.836;35.106;2023-06-24T10:57:42;100921.34;;;34.64;43.01
29461;BME280;16428;47.836;35.106;2023-06-24T11:00:14;100923.88;;;34.40;43.88
29461;BME280;16428;47.836;35.106;2023-06-24T11:02:42;100928.31;;;34.23;43.38
29461;BME280;16428;47.836;35.106;2023-06-24T11:05:09;100922.91;;;34.27;44.02
29461;BME280;16428;47.836;35.106;2023-06-24T11:07:38;100920.59;;;34.38;42.08
29461;BME280;16428;47.836;35.106;2023-06-24T11:10:14;100920.31;;;33.87;40.06
29461;BME280;16428;47.836;35.106;2023-06-24T11:12:42;100918.16;;;33.76;41.44
29461;BME280;16428;47.836;35.106;2023-06-24T11:15:11;100918.81;;;33.73;42.77
29461;BME280;16428;47.836;35.106;2023-06-24T11:17:40;100919.66;;;33.82;41.34
29461;BME280;16428;47.836;35.106;2023-06-24T11:20:09;100913.56;;;33.71;42.39
29461;BME280;16428;47.836;35.106;2023-06-24T11:22:37;100903.75;;;33.57;42.53
29461;BME280;16428;47.836;35.106;2023-06-24T11:25:04;100907.50;;;33.43;42.61
29461;BME280;16428;47.836;35.106;2023-06-24T11:27:31;100905.81;;;33.34;41.94
29461;BME280;16428;47.836;35.106;2023-06-24T11:29:59;100894.88;;;33.37;43.00
29461;BME280;16428;47.836;35.106;2023-06-24T11:32:39;100894.88;;;33.37;43.99
29461;BME280;16428;47.836;35.106;2023-06-24T11:35:09;100896.84;;;33.45;42.74
29461;BME280;16428;47.836;35.106;2023-06-24T11:37:41;100889.97;;;33.43;43.60
29461;BME280;16428;47.836;35.106;2023-06-24T11:40:10;100884.38;;;33.34;43.65
29461;BME280;16428;47.836;35.106;2023-06-24T11:42:40;100877.97;;;33.34;42.66
29461;BME280;16428;47.836;35.106;2023-06-24T11:45:10;100880.63;;;33.30;43.20
29461;BME280;16428;47.836;35.106;2023-06-24T11:47:42;100872.22;;;33.13;43.38
29461;BME280;16428;47.836;35.106;2023-06-24T11:50:10;100864.31;;;32.98;44.35
29461;BME280;16428;47.836;35.106;2023-06-24T11:52:42;100859.38;;;32.95;42.72
29461;BME280;16428;47.836;35.106;2023-06-24T11:57:58;100866.72;;;32.91;43.57
29461;BME280;16428;47.836;35.106;2023-06-24T12:00:36;100860.66;;;32.89;44.54
29461;BME280;16428;47.836;35.106;2023-06-24T12:03:07;100859.88;;;32.97;43.46
29461;BME280;16428;47.836;35.106;2023-06-24T12:05:39;100859.88;;;32.97;43.74
29461;BME280;16428;47.836;35.106;2023-06-24T12:08:13;100859.34;;;33.43;42.17
29461;BME280;16428;47.836;35.106;2023-06-24T12:10:44;100859.19;;;33.91;42.00
29461;BME280;16428;47.836;35.106;2023-06-24T12:13:12;100869.59;;;34.29;39.93
29461;BME280;16428;47.836;35.106;2023-06-24T12:15:39;100877.81;;;34.16;41.90
29461;BME280;16428;47.836;35.106;2023-06-24T12:18:06;100875.41;;;33.89;41.92
29461;BME280;16428;47.836;35.106;2023-06-24T12:20:35;100881.78;;;33.98;41.50
29461;BME280;16428;47.836;35.106;2023-06-24T12:23:07;100884.09;;;33.79;43.50
29461;BME280;16428;47.836;35.106;2023-06-24T12:25:34;100897.69;;;33.72;42.65
29461;BME280;16428;47.836;35.106;2023-06-24T12:28:01;100879.44;;;32.74;51.77
29461;BME280;16428;47.836;35.106;2023-06-24T12:30:29;100876.84;;;31.58;59.36
29461;BME280;16428;47.836;35.106;2023-06-24T12:32:56;100862.22;;;32.10;58.72
29461;BME280;16428;47.836;35.106;2023-06-24T12:35:24;100855.31;;;32.61;58.68
29461;BME280;16428;47.836;35.106;2023-06-24T12:37:55;100851.94;;;32.42;59.28
29461;BME280;16428;47.836;35.106;2023-06-24T12:40:23;100848.03;;;32.74;59.03
29461;BME280;16428;47.836;35.106;2023-06-24T12:42:50;100840.69;;;32.87;59.21
29461;BME280;16428;47.836;35.106;2023-06-24T12:45:17;100837.94;;;33.04;57.59
29461;BME280;16428;47.836;35.106;2023-06-24T12:47:44;100838.84;;;32.73;58.09
29461;BME280;16428;47.836;35.106;2023-06-24T12:50:12;100831.78;;;32.67;57.54
29461;BME280;16428;47.836;35.106;2023-06-24T12:52:42;100856.22;;;32.17;57.61
29461;BME280;16428;47.836;35.106;2023-06-24T12:55:10;100851.59;;;32.35;59.87
29461;BME280;16428;47.836;35.106;2023-06-24T12:57:39;100846.97;;;31.77;69.87
29461;BME280;16428;47.836;35.106;2023-06-24T13:00:07;100842.25;;;31.64;71.30
29461;BME280;16428;47.836;35.106;2023-06-24T13:02:35;100840.00;;;31.66;75.81